Time;durP1;ratioP1;P1;durP2;ratioP2;P2;SDS_P1;SDS_P2;PMS_P1;PMS_P2;Temp;Humidity;BMP_temperature;BMP_pressure;BME280_temperature;BME280_humidity;BME280_pressure;Samples;Min_cycle;Max_cycle;Signal;HPM_P1;HPM_P2
2023/01/25 00:01:04;;;;;;;10.30;6.93;;;;;;;3.25;71.89;95707.47;4146895;28;20488;-64
2023/01/25 00:03:06;;;;;;;10.93;6.45;;;;;;;3.31;71.78;95716.63;4146421;28;20129;-63
2023/01/25 00:05:08;;;;;;;9.80;6.40;;;;;;;3.40;71.78;95715.25;4136379;28;20061;-62
2023/01/25 00:07:10;;;;;;;8.75;6.47;;;;;;;3.40;71.17;95715.25;4139859;28;20107;-64
2023/01/25 00:09:12;;;;;;;36.58;19.95;;;;;;;3.38;71.61;95714.53;4145786;28;20047;-64
2023/01/25 00:11:15;;;;;;;11.95;6.60;;;;;;;3.35;71.24;95717.28;4139196;28;20212;-63
2023/01/25 00:13:17;;;;;;;9.93;6.75;;;;;;;3.28;71.71;95709.03;4141764;28;20083;-62
2023/01/25 00:15:19;;;;;;;10.65;6.63;;;;;;;3.23;71.98;95708.50;4132359;28;20054;-62
2023/01/25 00:17:20;;;;;;;11.25;6.65;;;;;;;3.18;71.87;95719.09;4131268;28;20070;-63
2023/01/25 00:19:22;;;;;;;10.30;7.15;;;;;;;3.10;72.61;95716.13;4139116;28;20048;-64
2023/01/25 00:21:25;;;;;;;10.10;6.45;;;;;;;2.80;72.92;95716.13;4146017;28;20092;-62
2023/01/25 00:23:27;;;;;;;10.40;6.45;;;;;;;2.71;73.75;95717.47;4143899;28;20053;-64
2023/01/25 00:25:28;;;;;;;9.80;6.53;;;;;;;2.60;74.26;95725.00;4130538;28;20085;-63
2023/01/25 00:27:31;;;;;;;9.48;6.72;;;;;;;2.58;74.66;95726.81;4130688;28;20459;-63
2023/01/25 00:29:33;;;;;;;13.70;7.72;;;;;;;2.37;74.89;95719.34;4143223;28;20119;-64
2023/01/25 00:31:53;;;;;;;13.52;6.97;;;;;;;2.31;75.24;95722.25;4143519;28;20047;-63
2023/01/25 00:34:05;;;;;;;9.68;7.25;;;;;;;2.42;75.75;95714.75;4131259;28;20046;-64
2023/01/25 00:36:32;;;;;;;10.88;7.47;;;;;;;2.40;74.84;95714.00;4111762;28;20138;-64
2023/01/25 00:38:34;;;;;;;9.20;6.68;;;;;;;2.50;75.27;95716.91;4145946;28;20050;-64
2023/01/25 00:40:35;;;;;;;9.48;6.70;;;;;;;2.63;75.12;95715.31;4133904;28;20050;-63
2023/01/25 00:42:37;;;;;;;9.38;6.57;;;;;;;2.60;74.49;95722.41;4131669;28;20046;-61
2023/01/25 00:44:39;;;;;;;10.25;6.50;;;;;;;2.43;74.06;95718.16;4145895;28;20207;-62
2023/01/25 00:46:40;;;;;;;10.57;7.00;;;;;;;2.39;74.37;95722.69;4146440;28;20134;-62
2023/01/25 00:48:43;;;;;;;11.40;7.15;;;;;;;2.47;74.89;95719.66;4133300;28;20047;-63
2023/01/25 00:50:44;;;;;;;10.45;7.35;;;;;;;2.64;74.80;95716.13;4143709;28;20115;-62
2023/01/25 00:52:46;;;;;;;9.93;6.88;;;;;;;2.75;74.44;95718.94;4145218;28;20046;-63
2023/01/25 00:54:48;;;;;;;8.93;6.68;;;;;;;2.81;73.46;95718.59;4145549;28;20064;-64
2023/01/25 00:56:52;;;;;;;11.20;7.03;;;;;;;2.79;73.10;95714.44;4144806;28;20081;-63
2023/01/25 00:58:54;;;;;;;8.65;6.38;;;;;;;2.82;73.17;95722.88;4145162;28;20050;-64
2023/01/25 01:00:56;;;;;;;9.63;6.60;;;;;;;2.92;73.28;95717.19;4144267;28;20046;-62
2023/01/25 01:02:58;;;;;;;8.35;6.28;;;;;;;2.98;73.20;95722.00;4144743;28;20099;-62
2023/01/25 01:05:00;;;;;;;10.35;6.55;;;;;;;3.00;72.65;95718.41;4142380;28;20089;-63
2023/01/25 01:07:01;;;;;;;9.20;6.60;;;;;;;3.02;72.23;95716.56;4142051;28;20077;-63
2023/01/25 01:09:05;;;;;;;10.50;6.18;;;;;;;2.82;72.20;95719.47;4135389;28;20381;-62
2023/01/25 01:11:09;;;;;;;8.90;5.60;;;;;;;2.71;72.36;95716.63;4145500;28;20057;-64
2023/01/25 01:13:11;;;;;;;10.10;6.03;;;;;;;2.59;72.59;95725.94;4145636;28;20069;-63
2023/01/25 01:15:13;;;;;;;8.68;6.03;;;;;;;2.34;73.32;95722.09;4145631;28;20084;-64
2023/01/25 01:17:14;;;;;;;8.60;6.00;;;;;;;2.28;74.04;95724.19;4145601;28;20535;-63
2023/01/25 01:19:16;;;;;;;9.52;6.43;;;;;;;2.40;74.49;95724.34;4145484;28;20053;-63
2023/01/25 01:21:18;;;;;;;8.38;5.47;;;;;;;2.42;73.47;95721.69;4143758;28;20093;-62
2023/01/25 01:23:20;;;;;;;8.48;5.90;;;;;;;2.50;74.15;95710.91;4134725;28;20104;-62
2023/01/25 01:25:21;;;;;;;8.13;5.75;;;;;;;2.57;73.81;95704.47;4127958;28;20096;-62
2023/01/25 01:27:23;;;;;;;8.35;5.57;;;;;;;2.64;73.13;95698.84;4139702;28;20389;-62
2023/01/25 01:29:24;;;;;;;9.77;6.00;;;;;;;2.77;72.88;95708.53;4143359;28;20045;-60
2023/01/25 01:31:26;;;;;;;8.07;5.70;;;;;;;2.83;72.26;95706.41;4134695;28;20208;-61
2023/01/25 01:33:28;;;;;;;8.43;5.78;;;;;;;2.91;71.99;95708.59;4137546;28;20476;-62
2023/01/25 01:35:30;;;;;;;7.90;5.13;;;;;;;2.98;71.87;95699.53;4133604;28;20054;-60
2023/01/25 01:37:32;;;;;;;7.85;5.78;;;;;;;3.03;71.78;95697.53;4145092;28;20050;-60
2023/01/25 01:39:34;;;;;;;8.00;5.80;;;;;;;3.07;71.50;95687.81;4145349;28;20104;-61
2023/01/25 01:41:36;;;;;;;7.70;5.18;;;;;;;3.06;71.53;95699.09;4143945;28;20507;-61
2023/01/25 01:43:38;;;;;;;9.65;5.18;;;;;;;3.08;71.75;95695.50;4137275;28;20489;-59
2023/01/25 01:46:02;;;;;;;7.50;5.53;;;;;;;3.08;71.90;95699.84;4132592;28;20054;-60
2023/01/25 01:48:04;;;;;;;8.15;5.50;;;;;;;3.15;71.43;95693.38;4127415;28;20058;-62
2023/01/25 01:50:17;;;;;;;8.27;5.30;;;;;;;3.20;71.26;95690.53;4142455;28;20116;-62
2023/01/25 01:52:22;;;;;;;8.25;5.10;;;;;;;3.15;70.92;95683.03;4120349;28;20540;-63
2023/01/25 01:54:41;;;;;;;7.57;5.10;;;;;;;3.13;71.17;95684.03;4141180;28;20558;-63
2023/01/25 01:57:10;;;;;;;7.80;5.10;;;;;;;3.16;71.91;95686.44;4143842;28;20058;-64
2023/01/25 01:59:12;;;;;;;6.88;4.95;;;;;;;3.17;71.77;95685.53;4133709;28;20125;-63
2023/01/25 02:01:15;;;;;;;7.25;5.18;;;;;;;3.21;71.74;95690.44;4125587;28;20071;-63
2023/01/25 02:03:18;;;;;;;7.70;4.95;;;;;;;3.28;71.59;95690.91;4147089;28;20121;-62
2023/01/25 02:05:26;;;;;;;8.73;5.18;;;;;;;3.33;71.53;95688.03;4131317;28;20120;-63
2023/01/25 02:07:31;;;;;;;7.28;4.65;;;;;;;3.30;71.26;95696.00;4147898;28;20042;-63
2023/01/25 02:09:35;;;;;;;9.90;5.28;;;;;;;3.24;71.61;95690.25;4147373;28;20053;-63
2023/01/25 02:11:38;;;;;;;11.25;5.80;;;;;;;3.20;71.25;95690.53;4130774;28;20137;-63
2023/01/25 02:13:40;;;;;;;7.22;4.68;;;;;;;3.14;71.57;95691.72;4130225;28;20086;-64
2023/01/25 02:16:00;;;;;;;7.20;5.15;;;;;;;3.14;71.42;95691.72;4146256;28;20113;-61
2023/01/25 02:18:02;;;;;;;7.47;5.10;;;;;;;3.18;71.61;95688.00;4140003;28;20056;-61
2023/01/25 02:20:13;;;;;;;8.45;5.18;;;;;;;3.20;71.22;95686.16;4138162;28;20100;-61
2023/01/25 02:22:17;;;;;;;7.97;4.93;;;;;;;3.21;71.61;95689.63;4139189;28;20623;-60
2023/01/25 02:24:30;;;;;;;7.45;4.85;;;;;;;3.23;71.28;95688.59;4128041;28;20057;-61
2023/01/25 02:26:32;;;;;;;7.82;5.13;;;;;;;3.21;71.42;95685.25;4146883;28;20748;-60
2023/01/25 02:28:38;;;;;;;7.13;4.82;;;;;;;3.26;71.55;95688.41;4142798;28;20050;-61
2023/01/25 02:30:41;;;;;;;6.95;5.13;;;;;;;3.28;71.17;95691.75;4130668;28;20077;-63
2023/01/25 02:32:43;;;;;;;8.57;5.00;;;;;;;3.23;70.86;95686.00;4147881;28;20046;-60
2023/01/25 02:34:44;;;;;;;8.45;5.20;;;;;;;3.19;71.75;95689.69;4140066;28;20106;-62
2023/01/25 02:36:46;;;;;;;7.80;4.68;;;;;;;3.04;71.30;95693.19;4130095;28;20109;-61
2023/01/25 02:38:58;;;;;;;5.70;3.95;;;;;;;2.58;72.03;95688.03;4146115;28;20042;-62
2023/01/25 02:41:12;;;;;;;8.93;4.45;;;;;;;2.28;73.11;95693.16;4143286;28;20108;-60
2023/01/25 02:43:14;;;;;;;;;;;;;;;2.33;74.07;95686.81;4130558;28;20050;-61
2023/01/25 02:45:18;;;;;;;8.07;4.78;;;;;;;2.33;74.16;95688.56;4144149;28;20291;-63
2023/01/25 02:47:19;;;;;;;7.32;4.82;;;;;;;2.33;73.96;95688.56;4130557;28;20046;-63
2023/01/25 02:49:21;;;;;;;6.97;4.43;;;;;;;2.39;73.85;95673.56;4144076;28;20046;-63
2023/01/25 02:51:25;;;;;;;6.65;3.72;;;;;;;2.44;73.92;95679.28;4143543;28;20050;-62
2023/01/25 02:53:26;;;;;;;6.15;4.18;;;;;;;2.50;73.43;95685.06;4147636;28;20053;-62
2023/01/25 02:55:28;;;;;;;5.82;4.03;;;;;;;2.55;73.41;95686.44;4143429;28;20054;-63
2023/01/25 02:57:30;;;;;;;6.88;4.50;;;;;;;2.44;72.98;95681.06;4143418;28;20092;-64
2023/01/25 02:59:31;;;;;;;6.35;3.90;;;;;;;2.21;73.43;95693.47;4129379;28;20116;-62
2023/01/25 03:01:35;;;;;;;6.82;4.45;;;;;;;2.07;73.62;95690.00;4135526;28;20448;-63
2023/01/25 03:03:37;;;;;;;7.47;4.95;;;;;;;1.89;74.57;95687.47;4147483;28;20050;-62
2023/01/25 03:05:38;;;;;;;7.35;4.70;;;;;;;1.62;75.42;95693.19;4129027;28;20138;-64
2023/01/25 03:07:40;;;;;;;7.40;4.60;;;;;;;1.32;75.75;95687.88;4145519;28;20531;-62
2023/01/25 03:09:42;;;;;;;7.45;5.03;;;;;;;1.28;76.18;95690.69;4135602;28;20089;-63
2023/01/25 03:11:43;;;;;;;6.32;4.75;;;;;;;1.39;76.60;95693.53;4146852;28;20141;-61
2023/01/25 03:13:45;;;;;;;7.80;4.82;;;;;;;1.51;76.22;95692.91;4147117;28;20478;-63
2023/01/25 03:15:47;;;;;;;7.72;5.20;;;;;;;1.62;76.09;95690.59;4129943;28;20061;-61
2023/01/25 03:17:48;;;;;;;7.95;5.32;;;;;;;1.79;76.48;95689.72;4147645;28;20050;-63
2023/01/25 03:19:51;;;;;;;7.18;5.07;;;;;;;1.94;75.45;95689.81;4147380;28;20050;-63
2023/01/25 03:21:52;;;;;;;6.88;4.97;;;;;;;2.16;75.12;95684.31;4146342;28;20133;-62
2023/01/25 03:24:00;;;;;;;5.57;4.15;;;;;;;2.25;74.19;95688.97;4147160;28;20053;-64
2023/01/25 03:26:05;;;;;;;9.13;5.47;;;;;;;2.37;73.65;95682.31;4146846;28;20077;-64
2023/01/25 03:28:07;;;;;;;8.15;5.30;;;;;;;2.46;73.43;95680.03;4146683;28;20058;-63
2023/01/25 03:30:09;;;;;;;7.78;4.68;;;;;;;2.57;72.90;95678.63;4146531;28;20050;-63
2023/01/25 03:32:11;;;;;;;8.13;5.03;;;;;;;2.51;72.75;95679.78;4129395;28;20100;-64
2023/01/25 03:34:12;;;;;;;7.10;5.25;;;;;;;2.49;72.60;95684.19;4141214;28;20050;-61
2023/01/25 03:36:14;;;;;;;10.45;5.68;;;;;;;2.46;72.82;95681.78;4141651;28;20449;-60
2023/01/25 03:38:16;;;;;;;9.27;6.18;;;;;;;2.49;72.70;95685.97;4146822;28;20061;-59
2023/01/25 03:40:17;;;;;;;7.60;5.25;;;;;;;2.51;72.95;95684.13;4135239;28;20081;-60
2023/01/25 03:42:20;;;;;;;11.02;7.13;;;;;;;2.39;72.87;95690.81;4140303;28;20480;-61
2023/01/25 03:44:21;;;;;;;8.60;6.40;;;;;;;2.39;73.43;95685.66;4141877;28;20056;-61
2023/01/25 03:46:23;;;;;;;7.22;5.65;;;;;;;2.49;73.46;95684.19;4135134;28;20109;-60
2023/01/25 03:48:26;;;;;;;9.98;6.30;;;;;;;2.57;72.89;95678.63;4136254;28;20042;-61
2023/01/25 03:50:27;;;;;;;7.68;5.35;;;;;;;2.70;72.75;95677.00;4139667;28;20046;-61
2023/01/25 03:52:44;;;;;;;7.80;4.72;;;;;;;2.73;72.11;95676.84;4142512;28;20096;-61
2023/01/25 03:54:46;;;;;;;7.45;5.03;;;;;;;2.75;72.00;95672.38;4128881;28;20050;-61
2023/01/25 03:56:47;;;;;;;7.35;5.07;;;;;;;2.78;72.39;95669.63;4146512;28;20107;-61
2023/01/25 03:58:49;;;;;;;7.63;5.07;;;;;;;2.86;72.15;95664.84;4136640;28;20101;-60
2023/01/25 04:00:54;;;;;;;7.38;5.32;;;;;;;2.89;71.90;95669.00;4143992;28;20058;-62
2023/01/25 04:02:56;;;;;;;8.07;4.90;;;;;;;2.90;71.97;95669.84;4143616;28;20057;-62
2023/01/25 04:04:57;;;;;;;9.65;5.78;;;;;;;2.80;71.72;95665.19;4128982;28;20073;-61
2023/01/25 04:06:59;;;;;;;8.00;5.78;;;;;;;2.84;71.95;95664.09;4146073;28;20139;-59
2023/01/25 04:09:01;;;;;;;7.07;4.70;;;;;;;2.89;72.02;95668.19;4146110;28;20088;-60
2023/01/25 04:11:07;;;;;;;6.20;4.45;;;;;;;2.89;71.57;95657.84;4145917;28;20108;-59
2023/01/25 04:13:09;;;;;;;7.80;5.03;;;;;;;2.90;72.29;95664.66;4128403;28;20129;-61
2023/01/25 04:15:11;;;;;;;7.20;4.95;;;;;;;2.89;72.02;95670.78;4145494;28;20093;-61
2023/01/25 04:17:12;;;;;;;8.13;4.90;;;;;;;2.94;72.00;95659.22;4145688;28;20065;-60
2023/01/25 04:19:14;;;;;;;7.53;4.88;;;;;;;2.94;71.65;95660.97;4146669;28;20053;-60
2023/01/25 04:21:16;;;;;;;8.15;5.03;;;;;;;2.96;72.07;95659.13;4145700;28;20046;-59
2023/01/25 04:23:18;;;;;;;6.13;4.20;;;;;;;2.99;71.78;95664.13;4146709;28;20089;-61
2023/01/25 04:25:20;;;;;;;8.38;5.03;;;;;;;2.99;71.82;95661.53;4145360;28;20053;-60
2023/01/25 04:27:21;;;;;;;7.55;5.03;;;;;;;3.04;72.30;95659.53;4128620;28;20109;-61
2023/01/25 04:29:23;;;;;;;7.35;5.10;;;;;;;3.04;72.05;95651.75;4145782;28;20046;-62
2023/01/25 04:31:40;;;;;;;7.75;5.25;;;;;;;3.04;71.76;95662.13;4146135;28;20081;-61
2023/01/25 04:33:42;;;;;;;9.27;5.38;;;;;;;3.02;71.71;95663.97;4144580;28;20104;-63
2023/01/25 04:35:44;;;;;;;7.75;4.75;;;;;;;3.06;71.68;95665.44;4134512;28;20049;-62
2023/01/25 04:37:55;;;;;;;7.05;5.20;;;;;;;3.05;71.74;95669.81;4146268;28;20135;-61
2023/01/25 04:39:57;;;;;;;7.95;5.30;;;;;;;3.04;71.48;95673.31;4132795;28;20050;-61
2023/01/25 04:41:59;;;;;;;8.27;5.32;;;;;;;3.03;71.54;95675.97;4115796;28;20586;-60
2023/01/25 04:44:00;;;;;;;7.05;5.10;;;;;;;3.04;72.02;95682.81;4129981;28;20058;-60
2023/01/25 04:46:02;;;;;;;11.23;5.85;;;;;;;3.02;71.73;95669.97;4130677;28;20053;-61
2023/01/25 04:48:08;;;;;;;7.82;5.18;;;;;;;3.03;72.13;95675.97;4143881;28;20077;-60
2023/01/25 04:50:10;;;;;;;8.02;5.32;;;;;;;3.02;72.12;95687.25;4142122;28;20046;-60
2023/01/25 04:52:12;;;;;;;7.13;4.93;;;;;;;3.04;72.11;95680.25;4130045;28;20054;-60
2023/01/25 04:54:13;;;;;;;8.52;5.13;;;;;;;3.08;72.13;95673.97;4141246;28;20081;-61
2023/01/25 04:56:15;;;;;;;8.25;5.28;;;;;;;3.15;71.90;95677.84;4133742;28;20460;-62
2023/01/25 04:58:17;;;;;;;8.30;5.28;;;;;;;3.12;71.80;95674.59;4140739;28;20180;-61
2023/01/25 05:00:19;;;;;;;6.60;5.00;;;;;;;3.12;71.37;95678.03;4138672;28;20649;-60
2023/01/25 05:02:21;;;;;;;9.18;6.28;;;;;;;3.18;71.45;95674.25;4146047;28;20100;-61
2023/01/25 05:04:23;;;;;;;9.13;5.95;;;;;;;3.17;71.09;95673.41;4144942;28;20046;-60
2023/01/25 05:06:24;;;;;;;7.20;5.20;;;;;;;3.16;71.57;95670.91;4135676;28;20125;-56
2023/01/25 05:08:26;;;;;;;7.63;5.22;;;;;;;3.13;72.06;95665.94;4139718;28;20077;-60
2023/01/25 05:10:28;;;;;;;8.13;5.20;;;;;;;3.12;72.16;95669.41;4143031;28;20074;-61
2023/01/25 05:12:29;;;;;;;7.55;5.00;;;;;;;3.12;71.61;95665.09;4145441;28;20108;-60
2023/01/25 05:14:31;;;;;;;10.18;5.05;;;;;;;3.13;71.19;95665.94;4145542;28;20235;-60
2023/01/25 05:16:33;;;;;;;7.47;4.68;;;;;;;3.03;70.50;95669.06;4146099;28;20050;-61
2023/01/25 05:18:35;;;;;;;6.88;4.53;;;;;;;3.03;71.07;95671.66;4134623;28;20104;-63
2023/01/25 05:20:55;;;;;;;6.53;4.35;;;;;;;2.92;70.64;95668.81;4132796;28;20050;-62
2023/01/25 05:22:56;;;;;;;6.60;4.90;;;;;;;2.83;70.79;95665.00;4138059;28;20108;-62
2023/01/25 05:24:58;;;;;;;6.05;4.47;;;;;;;2.81;71.33;95661.69;4123506;28;20050;-62
2023/01/25 05:27:04;;;;;;;8.85;4.78;;;;;;;2.88;71.80;95667.34;4131520;28;20457;-63
2023/01/25 05:29:05;;;;;;;6.68;4.25;;;;;;;2.96;72.26;95659.13;4138487;28;20061;-64
2023/01/25 05:31:07;;;;;;;8.38;5.05;;;;;;;3.05;71.99;95667.22;4140568;28;20057;-66
2023/01/25 05:33:09;;;;;;;7.47;4.32;;;;;;;3.02;71.04;95664.78;4128518;28;20090;-64
2023/01/25 05:35:10;;;;;;;6.10;4.38;;;;;;;3.10;70.50;95663.50;4139037;28;20089;-64
2023/01/25 05:37:15;;;;;;;7.35;4.50;;;;;;;3.09;70.11;95665.25;4138467;28;20054;-62
2023/01/25 05:39:16;;;;;;;4.93;3.75;;;;;;;3.12;69.71;95665.09;4141060;28;20112;-64
2023/01/25 05:41:18;;;;;;;6.35;4.38;;;;;;;3.11;69.64;95660.00;4145103;28;20057;-66
2023/01/25 05:43:22;;;;;;;6.20;4.50;;;;;;;3.10;69.72;95660.91;4147686;28;20053;-62
2023/01/25 05:45:24;;;;;;;6.07;3.97;;;;;;;3.13;69.91;95669.34;4140194;28;20050;-63
2023/01/25 05:47:26;;;;;;;8.13;5.43;;;;;;;3.14;69.91;95665.84;4149257;28;20078;-63
2023/01/25 05:49:28;;;;;;;6.90;4.60;;;;;;;3.12;70.02;95672.00;4149176;28;20148;-60
2023/01/25 05:51:30;;;;;;;6.07;4.50;;;;;;;3.12;69.70;95669.41;4136831;28;20053;-62
2023/01/25 05:53:31;;;;;;;5.78;4.07;;;;;;;3.10;69.63;95666.94;4135617;28;20061;-61
2023/01/25 05:55:35;;;;;;;7.22;4.30;;;;;;;3.08;69.42;95672.19;4135106;28;20054;-63
2023/01/25 05:57:37;;;;;;;5.78;4.30;;;;;;;3.11;69.19;95671.19;4137515;28;20054;-62
2023/01/25 05:59:39;;;;;;;6.97;4.68;;;;;;;3.08;68.91;95677.38;4148708;28;20049;-63
2023/01/25 06:01:40;;;;;;;8.48;5.00;;;;;;;3.13;69.27;95679.69;4143876;28;20047;-62
2023/01/25 06:03:42;;;;;;;7.10;4.68;;;;;;;3.15;69.07;95675.25;4141418;28;20050;-60
2023/01/25 06:05:44;;;;;;;5.97;3.65;;;;;;;3.06;68.92;95675.81;4148809;28;20129;-61
2023/01/25 06:07:45;;;;;;;4.60;3.40;;;;;;;3.06;68.92;95673.22;4144051;28;20050;-59
2023/01/25 06:09:47;;;;;;;6.22;4.10;;;;;;;3.03;68.52;95671.66;4137551;28;20057;-60
2023/01/25 06:11:49;;;;;;;5.45;3.70;;;;;;;2.99;68.52;95671.88;4147972;28;20124;-62
2023/01/25 06:13:50;;;;;;;6.10;3.72;;;;;;;3.01;68.58;95683.00;4148192;28;20054;-61
2023/01/25 06:15:56;;;;;;;6.43;4.65;;;;;;;3.05;68.82;95685.34;4147518;28;20077;-59
2023/01/25 06:17:58;;;;;;;5.43;3.97;;;;;;;3.08;69.02;95679.97;4145328;28;20046;-60
2023/01/25 06:19:59;;;;;;;6.72;4.13;;;;;;;3.05;68.59;95681.88;4148171;28;20049;-61
2023/01/25 06:22:01;;;;;;;6.43;3.50;;;;;;;3.10;68.93;95686.78;4134590;28;20200;-62
2023/01/25 06:24:04;;;;;;;6.38;4.00;;;;;;;3.15;68.76;95680.44;4130628;28;20081;-61
2023/01/25 06:26:07;;;;;;;6.07;3.72;;;;;;;3.20;68.61;95686.16;4148229;28;20046;-62
2023/01/25 06:28:09;;;;;;;6.50;4.20;;;;;;;3.22;68.71;95681.75;4148136;28;20504;-62
2023/01/25 06:30:11;;;;;;;6.65;4.25;;;;;;;3.23;68.83;95691.19;4134554;28;20129;-62
2023/01/25 06:32:13;;;;;;;7.35;4.35;;;;;;;3.24;68.56;95679.88;4134978;28;20157;-62
2023/01/25 06:34:15;;;;;;;7.40;4.65;;;;;;;3.22;68.11;95686.09;4142405;28;20073;-61
2023/01/25 06:36:18;;;;;;;8.75;4.70;;;;;;;3.26;68.57;95682.41;4131885;28;20050;-63
2023/01/25 06:38:20;;;;;;;7.97;5.37;;;;;;;3.27;68.85;95678.91;4144485;28;20112;-63
2023/01/25 06:40:22;;;;;;;7.72;4.80;;;;;;;3.28;68.08;95673.59;4133192;28;20275;-62
2023/01/25 06:42:24;;;;;;;8.57;4.68;;;;;;;3.20;68.40;95675.81;4133006;28;20054;-62
2023/01/25 06:44:25;;;;;;;9.57;5.22;;;;;;;3.17;68.67;95680.34;4132619;28;20484;-62
2023/01/25 06:46:30;;;;;;;7.07;4.75;;;;;;;3.13;68.60;95681.47;4145683;28;20058;-62
2023/01/25 06:48:32;;;;;;;6.63;4.45;;;;;;;3.14;68.20;95676.19;4132851;28;20128;-61
2023/01/25 06:50:34;;;;;;;8.70;4.55;;;;;;;3.11;68.26;95673.78;4132303;28;20042;-60
2023/01/25 06:52:36;;;;;;;8.13;4.30;;;;;;;3.08;68.31;95681.72;4132395;28;20145;-62
2023/01/25 06:54:37;;;;;;;6.90;5.22;;;;;;;3.10;68.76;95684.22;4146264;28;20054;-59
2023/01/25 06:56:39;;;;;;;8.23;4.95;;;;;;;3.10;69.13;95679.88;4147845;28;20141;-62
2023/01/25 06:58:41;;;;;;;6.10;4.47;;;;;;;3.13;69.51;95679.69;4147417;28;20050;-62
2023/01/25 07:00:42;;;;;;;8.02;4.50;;;;;;;3.11;68.73;95678.13;4147934;28;20058;-62
2023/01/25 07:02:44;;;;;;;5.97;4.00;;;;;;;3.11;68.39;95684.13;4134286;28;20081;-62
2023/01/25 07:04:46;;;;;;;7.30;4.63;;;;;;;3.07;68.31;95673.09;4131877;28;20120;-62
2023/01/25 07:06:48;;;;;;;6.75;4.63;;;;;;;3.04;68.52;95678.47;4121325;28;20053;-60
2023/01/25 07:08:50;;;;;;;6.70;4.43;;;;;;;2.97;68.39;95686.66;4136699;28;20058;-60
2023/01/25 07:10:55;;;;;;;8.02;4.60;;;;;;;2.97;68.76;95678.91;4113276;28;20476;-60
2023/01/25 07:12:57;;;;;;;9.93;4.95;;;;;;;3.01;68.63;95672.63;4135773;28;20072;-61
2023/01/25 07:14:59;;;;;;;6.25;4.90;;;;;;;2.98;70.17;95670.25;4147728;28;20052;-65
2023/01/25 07:17:00;;;;;;;7.18;5.07;;;;;;;3.09;70.58;95678.22;4147519;28;20050;-63
2023/01/25 07:19:05;;;;;;;7.95;5.03;;;;;;;3.11;68.98;95678.94;4147226;28;20050;-63
2023/01/25 07:21:09;;;;;;;7.85;5.47;;;;;;;3.06;68.41;95681.00;4130220;28;20050;-65
2023/01/25 07:23:11;;;;;;;9.40;5.57;;;;;;;3.06;69.18;95681.00;4129856;28;20054;-65
2023/01/25 07:25:13;;;;;;;7.00;5.40;;;;;;;3.14;69.69;95683.97;4146984;28;20472;-64
2023/01/25 07:27:15;;;;;;;8.30;5.65;;;;;;;3.19;68.62;95681.09;4146850;28;20074;-64
2023/01/25 07:29:17;;;;;;;6.32;4.75;;;;;;;3.21;68.37;95680.09;4147466;28;20068;-64
2023/01/25 07:31:19;;;;;;;9.82;4.97;;;;;;;3.26;68.44;95691.00;4147484;28;20488;-64
2023/01/25 07:33:21;;;;;;;6.88;5.05;;;;;;;3.26;68.38;95688.41;4145204;28;20049;-62
2023/01/25 07:35:23;;;;;;;6.07;4.60;;;;;;;3.22;67.76;95686.09;4147151;28;20100;-65
2023/01/25 07:37:26;;;;;;;5.45;3.65;;;;;;;3.15;68.21;95687.38;4147187;28;20048;-65
2023/01/25 07:39:28;;;;;;;5.88;3.60;;;;;;;3.07;68.61;95693.81;4147071;28;20137;-65
2023/01/25 07:41:31;;;;;;;6.55;4.57;;;;;;;3.05;68.72;95697.44;4147136;28;20089;-63
2023/01/25 07:43:33;;;;;;;7.10;4.68;;;;;;;2.96;68.41;95697.97;4133438;28;20058;-65
2023/01/25 07:45:34;;;;;;;7.15;4.40;;;;;;;2.84;69.05;95692.56;4147218;28;20049;-63
2023/01/25 07:47:36;;;;;;;7.13;5.22;;;;;;;2.70;68.81;95700.28;4146872;28;20053;-64
2023/01/25 07:49:38;;;;;;;7.18;5.45;;;;;;;2.75;69.39;95695.66;4146838;28;20064;-64
2023/01/25 07:51:40;;;;;;;6.90;5.32;;;;;;;2.81;69.31;95697.09;4146458;28;20052;-64
2023/01/25 07:53:42;;;;;;;7.88;5.32;;;;;;;2.60;68.67;95699.13;4147011;28;20050;-64
2023/01/25 07:55:44;;;;;;;6.93;5.30;;;;;;;2.51;69.57;95697.88;4146755;28;20495;-64
2023/01/25 07:57:46;;;;;;;9.07;6.28;;;;;;;2.50;69.76;95691.06;4145845;28;20484;-64
2023/01/25 07:59:48;;;;;;;8.07;5.75;;;;;;;2.52;70.03;95699.56;4146061;28;20061;-66
2023/01/25 08:01:50;;;;;;;8.82;6.68;;;;;;;2.62;70.01;95694.69;4147341;28;20061;-63
2023/01/25 08:03:54;;;;;;;9.55;6.68;;;;;;;2.54;69.69;95686.53;4146780;28;20049;-65
2023/01/25 08:05:56;;;;;;;9.68;6.32;;;;;;;2.56;70.17;95695.88;4133901;28;20055;-65
2023/01/25 08:07:58;;;;;;;9.25;6.43;;;;;;;2.65;70.43;95697.13;4130973;28;20046;-65
2023/01/25 08:09:59;;;;;;;11.75;6.72;;;;;;;2.76;70.39;95694.75;4138576;28;20046;-67
2023/01/25 08:12:01;;;;;;;12.15;7.07;;;;;;;2.86;69.91;95690.72;4145648;28;20065;-63
2023/01/25 08:14:03;;;;;;;11.00;7.28;;;;;;;2.94;69.55;95685.09;4146104;28;20472;-64
2023/01/25 08:16:05;;;;;;;11.57;7.78;;;;;;;2.98;69.55;95691.78;4147008;28;20542;-63
2023/01/25 08:18:07;;;;;;;12.88;8.70;;;;;;;3.03;69.16;95691.50;4146367;28;20492;-64
2023/01/25 08:20:09;;;;;;;11.55;8.55;;;;;;;3.06;68.89;95693.94;4146944;28;20507;-67
2023/01/25 08:22:12;;;;;;;12.27;9.20;;;;;;;3.07;68.97;95693.00;4130853;28;20054;-64
2023/01/25 08:24:14;;;;;;;15.15;9.32;;;;;;;3.09;69.32;95685.97;4130550;28;20071;-66
2023/01/25 08:26:17;;;;;;;12.95;9.32;;;;;;;3.18;69.30;95687.19;4130437;28;20047;-65
2023/01/25 08:28:19;;;;;;;16.45;9.02;;;;;;;3.17;69.05;95688.94;4129893;28;20082;-65
2023/01/25 08:30:21;;;;;;;13.73;8.82;;;;;;;3.16;69.41;95689.88;4142779;28;20046;-66
2023/01/25 08:32:23;;;;;;;15.35;9.40;;;;;;;3.21;68.95;95677.50;4118889;28;20132;-64
2023/01/25 08:34:24;;;;;;;13.35;9.43;;;;;;;3.24;69.00;95679.88;4139738;28;20053;-66
2023/01/25 08:36:26;;;;;;;14.57;9.00;;;;;;;3.30;69.25;95685.66;4146655;28;20742;-66
2023/01/25 08:38:28;;;;;;;15.30;9.82;;;;;;;3.31;69.42;95680.34;4145520;28;20081;-64
2023/01/25 08:40:30;;;;;;;14.85;9.70;;;;;;;3.29;68.75;95687.38;4146247;28;20280;-65
2023/01/25 08:42:32;;;;;;;12.40;9.25;;;;;;;3.35;69.16;95681.84;4146211;28;20193;-66
2023/01/25 08:44:33;;;;;;;13.55;9.20;;;;;;;3.42;69.06;95682.31;4128864;28;20058;-65
2023/01/25 08:46:35;;;;;;;14.02;9.07;;;;;;;3.34;68.96;95679.38;4128645;28;20096;-66
2023/01/25 08:48:37;;;;;;;14.00;9.32;;;;;;;3.15;68.75;95680.44;4146429;28;20467;-64
2023/01/25 08:50:39;;;;;;;12.43;9.07;;;;;;;3.12;69.37;95677.19;4146565;28;20057;-65
2023/01/25 08:52:41;;;;;;;12.27;8.93;;;;;;;3.17;69.72;95667.41;4112283;28;20050;-64
2023/01/25 08:54:43;;;;;;;13.80;10.10;;;;;;;3.27;69.73;95674.53;4142942;28;20084;-66
2023/01/25 08:56:44;;;;;;;14.73;9.85;;;;;;;3.34;69.63;95676.78;4129833;28;20133;-65
2023/01/25 08:58:48;;;;;;;13.15;8.73;;;;;;;3.31;68.92;95677.78;4139192;28;20104;-65
2023/01/25 09:00:49;;;;;;;14.15;9.02;;;;;;;3.25;69.11;95678.97;4145884;28;20092;-65
2023/01/25 09:02:51;;;;;;;12.20;8.52;;;;;;;3.24;69.16;95679.88;4144362;28;20136;-63
2023/01/25 09:04:53;;;;;;;21.83;9.77;;;;;;;3.02;69.31;95685.50;4135138;28;20088;-64
2023/01/25 09:06:54;;;;;;;11.32;8.55;;;;;;;2.93;70.16;95682.63;4145765;28;20050;-64
2023/01/25 09:08:58;;;;;;;13.73;9.25;;;;;;;2.98;70.48;95683.19;4146078;28;20053;-64
2023/01/25 09:11:11;;;;;;;13.95;9.35;;;;;;;3.05;70.51;95679.31;4145189;28;20049;-66
2023/01/25 09:13:13;;;;;;;12.25;9.55;;;;;;;3.16;70.09;95676.94;4145971;28;20485;-65
2023/01/25 09:15:15;;;;;;;15.57;10.05;;;;;;;3.26;70.04;95678.03;4135316;28;20050;-64
2023/01/25 09:17:16;;;;;;;16.52;9.40;;;;;;;3.32;69.22;95671.69;4143204;28;20050;-63
2023/01/25 09:19:18;;;;;;;13.90;9.65;;;;;;;3.24;69.52;95666.94;4142013;28;20057;-65
2023/01/25 09:21:20;;;;;;;13.50;9.63;;;;;;;3.27;70.16;95664.19;4129969;28;20055;-64
2023/01/25 09:23:22;;;;;;;13.70;9.27;;;;;;;3.34;69.51;95664.66;4129456;28;20058;-64
2023/01/25 09:25:24;;;;;;;12.13;9.05;;;;;;;3.08;69.87;95669.63;4143988;28;20435;-65
2023/01/25 09:27:26;;;;;;;12.80;9.10;;;;;;;2.79;70.94;95668.69;4144594;28;20046;-64
2023/01/25 09:29:28;;;;;;;11.95;8.93;;;;;;;2.55;71.66;95660.59;4145634;28;20046;-65
2023/01/25 09:31:29;;;;;;;11.77;8.85;;;;;;;2.59;72.29;95650.91;4134859;28;20113;-65
2023/01/25 09:33:33;;;;;;;11.90;9.35;;;;;;;2.58;72.11;95651.81;4144635;28;20053;-64
2023/01/25 09:35:35;;;;;;;16.02;11.35;;;;;;;2.61;72.38;95654.25;4146087;28;20073;-63
2023/01/25 09:37:37;;;;;;;14.95;9.60;;;;;;;2.64;72.03;95651.47;4145421;28;20544;-66
2023/01/25 09:39:39;;;;;;;12.68;8.85;;;;;;;2.67;72.05;95644.38;4145340;28;20054;-64
2023/01/25 09:41:59;;;;;;;12.07;8.38;;;;;;;2.78;72.01;95640.34;4127403;28;20054;-65
2023/01/25 09:44:36;;;;;;;10.75;8.68;;;;;;;2.86;71.73;95628.63;4136840;28;20097;-63